Wentworth, SD (57075)

10:44 PM CDT on July 22, 2014 (GMT -0500)
Madison Municipal (KMDS) Elev 1716 ft | 44.01 °N, 97.08 °W | Change Station

Current weather conditions updated 14 minutes ago

Clear
Clear
63 °F
Feels Like 63 °F
N
0
Wind Variable Wind from North

Tomorrow is forecast to be Warmer than today.

Today
High -- | Low -- °F
--% Chance of Precip.
Yesterday
High -- | Low -- °F
Precip. -- in
6:05 AM 9:02 PM
Waning Crescent, 13% visible
Pressure 30.25 in
Visibility 10.0 miles
Clouds Clear
Dew Point 63 °F
Humidity 100%
Rainfall 0.00 in
Snow Depth Not available.
UV 0 out of 12
Pollen 6.30 out of 12
Air Quality Not available.
Flu Activity Not available.
METAR KMDS 230330Z AUTO 00000KT 10SM CLR 17/17 A3025 RMK AO2

More Conditions Fewer Conditions

Pressure 30.25 in
Visibility 10.0 miles
Clouds Clear
Dew Point 63 °F
Humidity 100%
Rainfall 0.00 in
Snow Depth Not available.
UV 0 out of 12
Pollen 6.30 out of 12
Air Quality Not available.
Flu Activity Not available.
METAR KMDS 230330Z AUTO 00000KT 10SM CLR 17/17 A3025 RMK AO2

More Conditions Fewer Conditions

10-Day Weather Forecast

Almanac

Astronomy

Jul. 22, 2014 Rise Set
Actual Time 6:05 AM CDT 9:02 PM CDT
Civil Twilight 5:31 AM CDT 9:36 PM CDT
Nautical Twilight 4:47 AM CDT 10:19 PM CDT
Astronomical Twilight 3:56 AM CDT 11:10 PM CDT
Moon 2:41 AM CDT (7/22) 5:40 PM CDT (7/22)
Length of Visible Light 16h 05m
Length of Day
14h 56m
Tomorrow will be 1m 57s shorter.
Waning Crescent, 13% of the Moon is Illuminated
Today
Waning Crescent
Jul 26
New
Aug 3
First Quarter
Aug 10
Full
Aug 17
Last Quarter

Today's Extremes

State Highs State Lows

Community

WunderPhotos

Upload Photos

1,736,488 photos uploaded!

Nearby

Snow Depth

Station Depth Elevation
Blind Park 1 in 6890 ft

Earthquake Activity

City Distance Mag. Time & Date
No recent earthquake activity has been reported nearby.
Minimum magnitude displayed is 2.5.

Coastal Water Temperatures

Place Temperature
No Stations Reporting

Nearby Weather Stations

Station Location Temp. Dew Point Humidity Wind Precip. Elev Updated Type
HADS BIG SIOUX RIVER NEAR BROOKINGS 1 SD, Brookings, SD 65 °F - - North  at  - 0.00 in / hr 1549 ft 9:45 PM CDT MADIS
Valley View, Brookings, SD, Brookings, SD 68.9 °F 60 °F 72% NE  at  1.2 mph 0.00 in / hr 1601 ft 10:43 PM CDT Rapid Fire
Indian Hills, Brookings, SD 66.6 °F 60 °F 78% South  at  0.0 mph 0.00 in / hr 1650 ft 10:40 PM CDT Normal
Neighborhood, Brookings, SD 68.4 °F 59 °F 73% North  at  0.0 mph 0.00 in / hr 1627 ft 10:42 PM CDT Rapid Fire
Volga, SD 64.9 °F 57 °F 75% North  at  0.0 mph 0.00 in / hr 1655 ft 10:42 PM CDT Normal
477th, Baltic, SD 65.1 °F 60 °F 83% ENE  at  3.7 mph - / hr 1562 ft 10:31 PM CDT Normal
SW Crooks, Crooks, SD 69.4 °F 59 °F 70% NE  at  0.2 mph 0.00 in / hr 1552 ft 10:44 PM CDT Rapid Fire

Show More Stations Show Fewer Stations